sensor_id;sensor_type;location;lat;lon;timestamp;pressure;altitude;pressure_sealevel;temperature;humidity
34031;BME280;20319;28.466;-16.274;2023-09-30T00:00:17;95704.53;;;19.73;100.00
34031;BME280;20319;28.466;-16.274;2023-09-30T00:02:42;95727.56;;;19.76;100.00
34031;BME280;20319;28.466;-16.274;2023-09-30T00:05:08;95543.00;;;18.65;100.00
34031;BME280;20319;28.466;-16.274;2023-09-30T00:07:35;95512.28;;;18.56;100.00
34031;BME280;20319;28.466;-16.274;2023-09-30T00:10:01;95708.81;;;19.66;100.00
34031;BME280;20319;28.466;-16.274;2023-09-30T00:12:28;95690.88;;;19.65;100.00
34031;BME280;20319;28.466;-16.274;2023-09-30T00:14:54;95556.16;;;18.80;100.00
34031;BME280;20319;28.466;-16.274;2023-09-30T00:17:20;95492.63;;;18.37;100.00
34031;BME280;20319;28.466;-16.274;2023-09-30T00:19:45;95714.25;;;19.66;100.00
34031;BME280;20319;28.466;-16.274;2023-09-30T00:22:11;95548.66;;;18.77;100.00
34031;BME280;20319;28.466;-16.274;2023-09-30T00:24:36;95687.22;;;19.61;100.00
34031;BME280;20319;28.466;-16.274;2023-09-30T00:27:02;95735.47;;;19.86;100.00
34031;BME280;20319;28.466;-16.274;2023-09-30T00:29:28;95477.28;;;18.33;100.00
34031;BME280;20319;28.466;-16.274;2023-09-30T00:31:53;95713.31;;;19.70;100.00
34031;BME280;20319;28.466;-16.274;2023-09-30T00:34:19;95690.69;;;19.61;100.00
34031;BME280;20319;28.466;-16.274;2023-09-30T00:36:45;95707.19;;;19.65;100.00
34031;BME280;20319;28.466;-16.274;2023-09-30T00:39:10;95545.00;;;18.60;100.00
34031;BME280;20319;28.466;-16.274;2023-09-30T00:41:38;95591.88;;;18.96;100.00
34031;BME280;20319;28.466;-16.274;2023-09-30T00:44:04;95708.63;;;19.62;100.00
34031;BME280;20319;28.466;-16.274;2023-09-30T00:46:35;95697.06;;;19.57;100.00
34031;BME280;20319;28.466;-16.274;2023-09-30T00:49:03;95541.00;;;18.57;100.00
34031;BME280;20319;28.466;-16.274;2023-09-30T00:51:29;95715.00;;;19.58;100.00
34031;BME280;20319;28.466;-16.274;2023-09-30T00:53:58;95591.09;;;18.73;100.00
34031;BME280;20319;28.466;-16.274;2023-09-30T00:56:30;95700.59;;;19.57;100.00
34031;BME280;20319;28.466;-16.274;2023-09-30T00:58:56;95716.72;;;19.54;100.00
34031;BME280;20319;28.466;-16.274;2023-09-30T01:01:22;95725.91;;;19.66;100.00
34031;BME280;20319;28.466;-16.274;2023-09-30T01:03:48;95717.84;;;19.53;100.00
34031;BME280;20319;28.466;-16.274;2023-09-30T01:06:14;95738.53;;;19.71;100.00
34031;BME280;20319;28.466;-16.274;2023-09-30T01:08:40;95642.44;;;19.14;100.00
34031;BME280;20319;28.466;-16.274;2023-09-30T01:11:07;95687.56;;;19.46;100.00
34031;BME280;20319;28.466;-16.274;2023-09-30T01:13:37;95696.44;;;19.60;100.00
34031;BME280;20319;28.466;-16.274;2023-09-30T01:16:09;95719.06;;;19.69;100.00
34031;BME280;20319;28.466;-16.274;2023-09-30T01:18:35;95728.44;;;19.85;100.00
34031;BME280;20319;28.466;-16.274;2023-09-30T01:21:06;95559.50;;;18.77;100.00
34031;BME280;20319;28.466;-16.274;2023-09-30T01:23:32;95734.22;;;19.92;100.00
34031;BME280;20319;28.466;-16.274;2023-09-30T01:26:08;95732.78;;;19.94;100.00
34031;BME280;20319;28.466;-16.274;2023-09-30T01:28:35;95536.50;;;18.75;100.00
34031;BME280;20319;28.466;-16.274;2023-09-30T01:31:00;95730.53;;;19.96;100.00
34031;BME280;20319;28.466;-16.274;2023-09-30T01:33:27;95711.13;;;19.81;100.00
34031;BME280;20319;28.466;-16.274;2023-09-30T01:35:54;95709.88;;;19.87;100.00
34031;BME280;20319;28.466;-16.274;2023-09-30T01:38:20;95696.25;;;19.78;100.00
34031;BME280;20319;28.466;-16.274;2023-09-30T01:40:46;95704.09;;;19.80;100.00
34031;BME280;20319;28.466;-16.274;2023-09-30T01:43:13;95541.13;;;18.74;100.00
34031;BME280;20319;28.466;-16.274;2023-09-30T01:45:42;95750.88;;;19.99;100.00
34031;BME280;20319;28.466;-16.274;2023-09-30T01:48:08;95726.72;;;19.97;100.00
34031;BME280;20319;28.466;-16.274;2023-09-30T01:50:38;95710.38;;;19.89;100.00
34031;BME280;20319;28.466;-16.274;2023-09-30T01:53:05;95540.19;;;18.79;100.00
34031;BME280;20319;28.466;-16.274;2023-09-30T01:55:34;95703.47;;;19.83;100.00
34031;BME280;20319;28.466;-16.274;2023-09-30T01:58:01;95690.94;;;19.73;100.00
34031;BME280;20319;28.466;-16.274;2023-09-30T02:00:27;95519.44;;;18.74;100.00
34031;BME280;20319;28.466;-16.274;2023-09-30T02:02:54;95678.78;;;19.71;100.00
34031;BME280;20319;28.466;-16.274;2023-09-30T02:05:21;95685.69;;;19.77;100.00
34031;BME280;20319;28.466;-16.274;2023-09-30T02:07:48;95717.72;;;19.88;100.00
34031;BME280;20319;28.466;-16.274;2023-09-30T02:10:14;95717.19;;;19.78;100.00
34031;BME280;20319;28.466;-16.274;2023-09-30T02:12:39;95572.59;;;18.97;100.00
34031;BME280;20319;28.466;-16.274;2023-09-30T02:15:06;95507.41;;;18.45;100.00
34031;BME280;20319;28.466;-16.274;2023-09-30T02:17:32;95702.50;;;19.57;100.00
34031;BME280;20319;28.466;-16.274;2023-09-30T02:19:58;95699.78;;;19.57;100.00
34031;BME280;20319;28.466;-16.274;2023-09-30T02:22:26;95469.34;;;18.14;100.00
34031;BME280;20319;28.466;-16.274;2023-09-30T02:24:53;95575.22;;;18.67;100.00
34031;BME280;20319;28.466;-16.274;2023-09-30T02:27:19;95631.41;;;19.10;100.00
34031;BME280;20319;28.466;-16.274;2023-09-30T02:29:45;95528.81;;;18.46;100.00
34031;BME280;20319;28.466;-16.274;2023-09-30T02:32:11;95694.63;;;19.47;100.00
34031;BME280;20319;28.466;-16.274;2023-09-30T02:34:37;95691.41;;;19.45;100.00
34031;BME280;20319;28.466;-16.274;2023-09-30T02:37:03;95711.72;;;19.47;100.00
34031;BME280;20319;28.466;-16.274;2023-09-30T02:39:29;95692.66;;;19.39;100.00
34031;BME280;20319;28.466;-16.274;2023-09-30T02:41:54;95684.13;;;19.32;100.00
34031;BME280;20319;28.466;-16.274;2023-09-30T02:44:20;95724.19;;;19.48;100.00
34031;BME280;20319;28.466;-16.274;2023-09-30T02:46:46;95680.41;;;19.28;100.00
34031;BME280;20319;28.466;-16.274;2023-09-30T02:49:11;95566.78;;;18.46;100.00
34031;BME280;20319;28.466;-16.274;2023-09-30T02:51:37;95490.53;;;18.12;100.00
34031;BME280;20319;28.466;-16.274;2023-09-30T02:54:03;95650.09;;;19.12;100.00
34031;BME280;20319;28.466;-16.274;2023-09-30T02:56:28;95665.94;;;19.18;100.00
34031;BME280;20319;28.466;-16.274;2023-09-30T02:58:56;95691.66;;;19.35;100.00
34031;BME280;20319;28.466;-16.274;2023-09-30T03:01:22;95677.63;;;19.19;100.00
34031;BME280;20319;28.466;-16.274;2023-09-30T03:03:47;95667.00;;;19.09;100.00
34031;BME280;20319;28.466;-16.274;2023-09-30T03:06:13;95508.22;;;18.10;100.00
34031;BME280;20319;28.466;-16.274;2023-09-30T03:08:40;95468.25;;;17.80;100.00
34031;BME280;20319;28.466;-16.274;2023-09-30T03:11:06;95545.50;;;18.26;100.00
34031;BME280;20319;28.466;-16.274;2023-09-30T03:13:33;95696.13;;;19.31;100.00
34031;BME280;20319;28.466;-16.274;2023-09-30T03:15:58;95708.38;;;19.28;100.00
34031;BME280;20319;28.466;-16.274;2023-09-30T03:18:24;95676.81;;;19.18;100.00
34031;BME280;20319;28.466;-16.274;2023-09-30T03:20:59;95691.91;;;19.25;100.00
34031;BME280;20319;28.466;-16.274;2023-09-30T03:23:34;95441.06;;;17.71;100.00
34031;BME280;20319;28.466;-16.274;2023-09-30T03:26:00;95666.03;;;19.05;100.00
34031;BME280;20319;28.466;-16.274;2023-09-30T03:28:27;95693.09;;;19.18;100.00
34031;BME280;20319;28.466;-16.274;2023-09-30T03:30:53;95690.22;;;19.15;100.00
34031;BME280;20319;28.466;-16.274;2023-09-30T03:33:18;95486.31;;;17.84;100.00
34031;BME280;20319;28.466;-16.274;2023-09-30T03:35:44;95688.09;;;19.12;100.00
34031;BME280;20319;28.466;-16.274;2023-09-30T03:38:12;95475.97;;;17.73;100.00
34031;BME280;20319;28.466;-16.274;2023-09-30T03:40:39;95703.22;;;19.04;100.00
34031;BME280;20319;28.466;-16.274;2023-09-30T03:43:05;95671.59;;;18.86;100.00
34031;BME280;20319;28.466;-16.274;2023-09-30T03:45:31;95686.13;;;19.04;100.00
34031;BME280;20319;28.466;-16.274;2023-09-30T03:48:02;95670.22;;;18.89;100.00
34031;BME280;20319;28.466;-16.274;2023-09-30T03:50:28;95664.97;;;18.92;100.00
34031;BME280;20319;28.466;-16.274;2023-09-30T03:53:04;95680.53;;;19.00;100.00
34031;BME280;20319;28.466;-16.274;2023-09-30T03:55:33;95651.63;;;18.82;100.00
34031;BME280;20319;28.466;-16.274;2023-09-30T03:57:59;95648.38;;;18.72;100.00
34031;BME280;20319;28.466;-16.274;2023-09-30T04:00:25;95654.09;;;18.70;100.00
34031;BME280;20319;28.466;-16.274;2023-09-30T04:02:51;95460.75;;;17.63;100.00
34031;BME280;20319;28.466;-16.274;2023-09-30T04:05:24;95665.41;;;18.86;100.00
34031;BME280;20319;28.466;-16.274;2023-09-30T04:07:57;95415.44;;;17.28;100.00
34031;BME280;20319;28.466;-16.274;2023-09-30T04:10:23;95648.84;;;18.74;100.00
34031;BME280;20319;28.466;-16.274;2023-09-30T04:12:48;95679.19;;;18.76;100.00
34031;BME280;20319;28.466;-16.274;2023-09-30T04:15:14;95648.53;;;18.75;100.00
34031;BME280;20319;28.466;-16.274;2023-09-30T04:17:41;95477.41;;;17.70;100.00
34031;BME280;20319;28.466;-16.274;2023-09-30T04:20:08;95531.22;;;17.99;100.00
34031;BME280;20319;28.466;-16.274;2023-09-30T04:22:36;95659.69;;;18.74;100.00
34031;BME280;20319;28.466;-16.274;2023-09-30T04:25:02;95692.22;;;18.87;100.00
34031;BME280;20319;28.466;-16.274;2023-09-30T04:27:34;95680.63;;;18.73;100.00
34031;BME280;20319;28.466;-16.274;2023-09-30T04:29:59;95656.72;;;18.62;100.00
34031;BME280;20319;28.466;-16.274;2023-09-30T04:32:25;95482.53;;;17.58;100.00
34031;BME280;20319;28.466;-16.274;2023-09-30T04:34:53;95646.78;;;18.57;100.00
34031;BME280;20319;28.466;-16.274;2023-09-30T04:37:18;95645.69;;;18.58;100.00
34031;BME280;20319;28.466;-16.274;2023-09-30T04:39:44;95455.03;;;17.37;100.00
34031;BME280;20319;28.466;-16.274;2023-09-30T04:42:10;95446.03;;;17.28;100.00
34031;BME280;20319;28.466;-16.274;2023-09-30T04:44:37;95670.97;;;18.67;100.00
34031;BME280;20319;28.466;-16.274;2023-09-30T04:47:04;95578.88;;;18.13;100.00
34031;BME280;20319;28.466;-16.274;2023-09-30T04:49:30;95691.47;;;18.73;100.00
34031;BME280;20319;28.466;-16.274;2023-09-30T04:51:56;95478.44;;;17.47;100.00
34031;BME280;20319;28.466;-16.274;2023-09-30T04:54:21;95651.41;;;18.57;100.00
34031;BME280;20319;28.466;-16.274;2023-09-30T04:56:47;95567.63;;;18.06;100.00
34031;BME280;20319;28.466;-16.274;2023-09-30T04:59:13;95664.66;;;18.58;100.00
34031;BME280;20319;28.466;-16.274;2023-09-30T05:01:39;95691.47;;;18.73;100.00
34031;BME280;20319;28.466;-16.274;2023-09-30T05:04:05;95336.13;;;16.51;100.00
34031;BME280;20319;28.466;-16.274;2023-09-30T05:06:31;95684.03;;;18.65;100.00
34031;BME280;20319;28.466;-16.274;2023-09-30T05:08:58;95487.13;;;17.44;100.00
34031;BME280;20319;28.466;-16.274;2023-09-30T05:11:25;95686.25;;;18.63;100.00
34031;BME280;20319;28.466;-16.274;2023-09-30T05:13:50;95664.41;;;18.46;100.00
34031;BME280;20319;28.466;-16.274;2023-09-30T05:16:17;95673.00;;;18.48;100.00
34031;BME280;20319;28.466;-16.274;2023-09-30T05:18:43;95688.81;;;18.46;100.00
34031;BME280;20319;28.466;-16.274;2023-09-30T05:21:09;95726.44;;;18.61;100.00
34031;BME280;20319;28.466;-16.274;2023-09-30T05:23:36;95674.63;;;18.49;100.00
34031;BME280;20319;28.466;-16.274;2023-09-30T05:26:02;95661.56;;;18.38;100.00
34031;BME280;20319;28.466;-16.274;2023-09-30T05:28:28;95690.56;;;18.37;100.00
34031;BME280;20319;28.466;-16.274;2023-09-30T05:30:53;95676.47;;;18.40;100.00
34031;BME280;20319;28.466;-16.274;2023-09-30T05:33:19;95713.19;;;18.60;100.00
34031;BME280;20319;28.466;-16.274;2023-09-30T05:35:45;95485.31;;;17.26;100.00
34031;BME280;20319;28.466;-16.274;2023-09-30T05:38:11;95642.22;;;18.17;100.00
34031;BME280;20319;28.466;-16.274;2023-09-30T05:40:37;95688.81;;;18.46;100.00
34031;BME280;20319;28.466;-16.274;2023-09-30T05:43:04;95699.16;;;18.44;100.00
34031;BME280;20319;28.466;-16.274;2023-09-30T05:45:31;95702.97;;;18.43;100.00
34031;BME280;20319;28.466;-16.274;2023-09-30T05:48:01;95542.19;;;17.53;100.00
34031;BME280;20319;28.466;-16.274;2023-09-30T05:50:29;95587.16;;;17.81;100.00
34031;BME280;20319;28.466;-16.274;2023-09-30T05:52:55;95515.00;;;17.31;100.00
34031;BME280;20319;28.466;-16.274;2023-09-30T05:55:21;95693.00;;;18.39;100.00
34031;BME280;20319;28.466;-16.274;2023-09-30T05:57:50;95523.84;;;17.36;100.00
34031;BME280;20319;28.466;-16.274;2023-09-30T06:00:18;95667.50;;;18.26;100.00
34031;BME280;20319;28.466;-16.274;2023-09-30T06:02:57;95714.19;;;18.50;100.00
34031;BME280;20319;28.466;-16.274;2023-09-30T06:05:22;95706.38;;;18.49;100.00
34031;BME280;20319;28.466;-16.274;2023-09-30T06:07:52;95684.38;;;18.23;100.00
34031;BME280;20319;28.466;-16.274;2023-09-30T06:10:19;95681.66;;;18.23;100.00
34031;BME280;20319;28.466;-16.274;2023-09-30T06:12:46;95722.44;;;18.45;100.00
34031;BME280;20319;28.466;-16.274;2023-09-30T06:15:13;95723.66;;;18.39;100.00
34031;BME280;20319;28.466;-16.274;2023-09-30T06:17:40;95696.00;;;18.10;100.00
34031;BME280;20319;28.466;-16.274;2023-09-30T06:20:06;95515.06;;;16.99;100.00
34031;BME280;20319;28.466;-16.274;2023-09-30T06:22:44;95685.59;;;18.04;100.00
34031;BME280;20319;28.466;-16.274;2023-09-30T06:25:12;95684.28;;;18.01;100.00
34031;BME280;20319;28.466;-16.274;2023-09-30T06:27:38;95741.00;;;18.11;100.00
34031;BME280;20319;28.466;-16.274;2023-09-30T06:30:04;95572.03;;;17.21;100.00
34031;BME280;20319;28.466;-16.274;2023-09-30T06:32:30;95586.06;;;17.23;100.00
34031;BME280;20319;28.466;-16.274;2023-09-30T06:34:56;95543.31;;;16.93;100.00
34031;BME280;20319;28.466;-16.274;2023-09-30T06:37:21;95754.75;;;18.28;100.00
34031;BME280;20319;28.466;-16.274;2023-09-30T06:39:47;95760.97;;;18.15;100.00
34031;BME280;20319;28.466;-16.274;2023-09-30T06:42:13;95699.81;;;17.82;100.00
34031;BME280;20319;28.466;-16.274;2023-09-30T06:44:39;95671.72;;;17.78;100.00
34031;BME280;20319;28.466;-16.274;2023-09-30T06:47:05;95749.00;;;18.03;100.00
34031;BME280;20319;28.466;-16.274;2023-09-30T06:49:34;95542.53;;;16.92;100.00
34031;BME280;20319;28.466;-16.274;2023-09-30T06:51:59;95730.84;;;18.03;100.00
34031;BME280;20319;28.466;-16.274;2023-09-30T06:54:25;95710.56;;;17.87;100.00
34031;BME280;20319;28.466;-16.274;2023-09-30T06:56:50;95742.91;;;18.11;100.00
34031;BME280;20319;28.466;-16.274;2023-09-30T06:59:16;95399.53;;;15.94;100.00
34031;BME280;20319;28.466;-16.274;2023-09-30T07:01:42;95545.41;;;16.96;100.00
34031;BME280;20319;28.466;-16.274;2023-09-30T07:04:09;95726.03;;;18.00;100.00
34031;BME280;20319;28.466;-16.274;2023-09-30T07:06:37;95767.09;;;18.21;100.00
34031;BME280;20319;28.466;-16.274;2023-09-30T07:09:03;95745.47;;;18.02;100.00
34031;BME280;20319;28.466;-16.274;2023-09-30T07:11:30;95615.56;;;17.38;100.00
34031;BME280;20319;28.466;-16.274;2023-09-30T07:13:59;95532.88;;;16.86;100.00
34031;BME280;20319;28.466;-16.274;2023-09-30T07:16:24;95563.06;;;17.07;100.00
34031;BME280;20319;28.466;-16.274;2023-09-30T07:18:50;95763.19;;;18.13;100.00
34031;BME280;20319;28.466;-16.274;2023-09-30T07:21:16;95543.59;;;16.91;100.00
34031;BME280;20319;28.466;-16.274;2023-09-30T07:23:42;95563.97;;;17.02;100.00
34031;BME280;20319;28.466;-16.274;2023-09-30T07:26:08;95615.22;;;17.26;100.00
34031;BME280;20319;28.466;-16.274;2023-09-30T07:28:35;95756.34;;;18.16;100.00
34031;BME280;20319;28.466;-16.274;2023-09-30T07:31:01;95760.66;;;18.17;100.00
34031;BME280;20319;28.466;-16.274;2023-09-30T07:33:26;95754.72;;;18.01;100.00
34031;BME280;20319;28.466;-16.274;2023-09-30T07:35:52;95557.03;;;16.96;100.00
34031;BME280;20319;28.466;-16.274;2023-09-30T07:38:18;95767.41;;;18.19;100.00
34031;BME280;20319;28.466;-16.274;2023-09-30T07:40:43;95529.09;;;16.87;100.00
34031;BME280;20319;28.466;-16.274;2023-09-30T07:43:10;95772.66;;;18.43;100.00
34031;BME280;20319;28.466;-16.274;2023-09-30T07:45:36;95762.50;;;18.35;100.00
34031;BME280;20319;28.466;-16.274;2023-09-30T07:48:01;95795.66;;;18.45;100.00
34031;BME280;20319;28.466;-16.274;2023-09-30T07:50:30;95783.31;;;18.53;100.00
34031;BME280;20319;28.466;-16.274;2023-09-30T07:52:56;95785.03;;;18.62;100.00
34031;BME280;20319;28.466;-16.274;2023-09-30T07:55:21;95766.84;;;18.49;100.00
34031;BME280;20319;28.466;-16.274;2023-09-30T07:57:47;95575.88;;;17.33;100.00
34031;BME280;20319;28.466;-16.274;2023-09-30T08:00:13;95772.66;;;18.56;100.00
34031;BME280;20319;28.466;-16.274;2023-09-30T08:02:43;95631.50;;;17.72;100.00
34031;BME280;20319;28.466;-16.274;2023-09-30T08:05:09;95806.91;;;18.79;100.00
34031;BME280;20319;28.466;-16.274;2023-09-30T08:07:36;95764.91;;;18.63;100.00
34031;BME280;20319;28.466;-16.274;2023-09-30T08:10:05;95759.19;;;18.65;100.00
34031;BME280;20319;28.466;-16.274;2023-09-30T08:12:32;95806.41;;;18.91;100.00
34031;BME280;20319;28.466;-16.274;2023-09-30T08:14:58;95773.16;;;18.72;100.00
34031;BME280;20319;28.466;-16.274;2023-09-30T08:17:23;95790.72;;;18.88;100.00
34031;BME280;20319;28.466;-16.274;2023-09-30T08:19:49;95757.75;;;18.67;100.00
34031;BME280;20319;28.466;-16.274;2023-09-30T08:22:15;95795.63;;;18.99;100.00
34031;BME280;20319;28.466;-16.274;2023-09-30T08:24:40;95809.59;;;19.06;100.00
34031;BME280;20319;28.466;-16.274;2023-09-30T08:27:06;95810.56;;;19.10;100.00
34031;BME280;20319;28.466;-16.274;2023-09-30T08:29:35;95780.44;;;18.98;100.00
34031;BME280;20319;28.466;-16.274;2023-09-30T08:32:03;95619.94;;;17.93;100.00
34031;BME280;20319;28.466;-16.274;2023-09-30T08:34:30;95817.63;;;19.11;100.00
34031;BME280;20319;28.466;-16.274;2023-09-30T08:36:55;95801.44;;;19.06;100.00
34031;BME280;20319;28.466;-16.274;2023-09-30T08:39:22;95583.72;;;17.89;100.00
34031;BME280;20319;28.466;-16.274;2023-09-30T08:41:49;95601.06;;;18.02;100.00
34031;BME280;20319;28.466;-16.274;2023-09-30T08:44:15;95676.94;;;18.56;100.00
34031;BME280;20319;28.466;-16.274;2023-09-30T08:46:41;95671.81;;;18.41;100.00
34031;BME280;20319;28.466;-16.274;2023-09-30T08:49:07;95817.19;;;19.45;100.00
34031;BME280;20319;28.466;-16.274;2023-09-30T08:51:35;95839.88;;;19.49;100.00
34031;BME280;20319;28.466;-16.274;2023-09-30T08:54:01;95784.63;;;19.32;100.00
34031;BME280;20319;28.466;-16.274;2023-09-30T08:56:31;95610.25;;;18.28;100.00
34031;BME280;20319;28.466;-16.274;2023-09-30T08:59:01;95795.75;;;19.44;100.00
34031;BME280;20319;28.466;-16.274;2023-09-30T09:01:28;95805.63;;;19.62;100.00
34031;BME280;20319;28.466;-16.274;2023-09-30T09:03:55;95806.38;;;19.76;100.00
34031;BME280;20319;28.466;-16.274;2023-09-30T09:06:25;95641.19;;;18.76;100.00
34031;BME280;20319;28.466;-16.274;2023-09-30T09:08:51;95816.69;;;19.87;100.00
34031;BME280;20319;28.466;-16.274;2023-09-30T09:11:17;95457.94;;;17.68;100.00
34031;BME280;20319;28.466;-16.274;2023-09-30T09:13:52;95806.06;;;19.99;100.00
34031;BME280;20319;28.466;-16.274;2023-09-30T09:16:22;95630.47;;;18.93;100.00
34031;BME280;20319;28.466;-16.274;2023-09-30T09:18:49;95633.56;;;19.00;100.00
34031;BME280;20319;28.466;-16.274;2023-09-30T09:21:17;95817.84;;;20.17;100.00
34031;BME280;20319;28.466;-16.274;2023-09-30T09:23:46;95817.47;;;20.10;100.00
34031;BME280;20319;28.466;-16.274;2023-09-30T09:26:33;95806.50;;;20.15;100.00
34031;BME280;20319;28.466;-16.274;2023-09-30T09:29:02;95831.25;;;20.35;100.00
34031;BME280;20319;28.466;-16.274;2023-09-30T09:31:33;95811.97;;;20.23;100.00
34031;BME280;20319;28.466;-16.274;2023-09-30T09:34:00;95643.09;;;19.33;100.00
34031;BME280;20319;28.466;-16.274;2023-09-30T09:39:05;95807.72;;;20.39;100.00
34031;BME280;20319;28.466;-16.274;2023-09-30T09:41:31;95828.91;;;20.51;100.00
34031;BME280;20319;28.466;-16.274;2023-09-30T09:43:59;95826.34;;;20.46;100.00
34031;BME280;20319;28.466;-16.274;2023-09-30T09:46:29;95827.19;;;20.55;100.00
34031;BME280;20319;28.466;-16.274;2023-09-30T09:48:55;95711.75;;;19.78;100.00
34031;BME280;20319;28.466;-16.274;2023-09-30T09:51:23;95829.91;;;20.55;100.00
34031;BME280;20319;28.466;-16.274;2023-09-30T09:53:49;95827.56;;;20.71;100.00
34031;BME280;20319;28.466;-16.274;2023-09-30T09:56:15;95830.94;;;20.68;100.00
34031;BME280;20319;28.466;-16.274;2023-09-30T09:58:43;95840.78;;;20.94;100.00
34031;BME280;20319;28.466;-16.274;2023-09-30T10:01:10;95806.94;;;20.78;100.00
34031;BME280;20319;28.466;-16.274;2023-09-30T10:03:37;95823.94;;;20.92;100.00
34031;BME280;20319;28.466;-16.274;2023-09-30T10:06:03;95697.22;;;20.13;100.00
34031;BME280;20319;28.466;-16.274;2023-09-30T10:08:42;95627.38;;;19.83;100.00
34031;BME280;20319;28.466;-16.274;2023-09-30T10:11:17;95834.63;;;21.19;100.00
34031;BME280;20319;28.466;-16.274;2023-09-30T10:21:34;95822.13;;;21.18;100.00
34031;BME280;20319;28.466;-16.274;2023-09-30T10:35:17;95874.56;;;21.49;100.00
34031;BME280;20319;28.466;-16.274;2023-09-30T10:37:46;95842.50;;;21.38;100.00
34031;BME280;20319;28.466;-16.274;2023-09-30T10:40:38;95855.50;;;21.49;100.00
34031;BME280;20319;28.466;-16.274;2023-09-30T10:43:04;95823.75;;;21.36;100.00
34031;BME280;20319;28.466;-16.274;2023-09-30T10:45:43;95826.47;;;21.36;100.00
34031;BME280;20319;28.466;-16.274;2023-09-30T10:50:51;95877.00;;;21.59;100.00
34031;BME280;20319;28.466;-16.274;2023-09-30T10:53:20;95836.56;;;21.44;100.00
34031;BME280;20319;28.466;-16.274;2023-09-30T10:55:46;95824.72;;;21.40;100.00
34031;BME280;20319;28.466;-16.274;2023-09-30T10:58:15;95665.19;;;20.40;100.00
34031;BME280;20319;28.466;-16.274;2023-09-30T11:00:53;95824.09;;;21.43;100.00
34031;BME280;20319;28.466;-16.274;2023-09-30T11:03:20;95853.09;;;21.48;100.00
34031;BME280;20319;28.466;-16.274;2023-09-30T11:05:50;95851.03;;;21.53;100.00
34031;BME280;20319;28.466;-16.274;2023-09-30T11:08:21;95727.25;;;20.95;100.00
34031;BME280;20319;28.466;-16.274;2023-09-30T11:10:51;95856.03;;;21.77;100.00
34031;BME280;20319;28.466;-16.274;2023-09-30T11:13:18;95850.88;;;21.67;100.00
34031;BME280;20319;28.466;-16.274;2023-09-30T11:15:44;95809.03;;;21.54;100.00
34031;BME280;20319;28.466;-16.274;2023-09-30T11:18:17;95850.56;;;21.85;100.00
34031;BME280;20319;28.466;-16.274;2023-09-30T11:20:44;95844.16;;;21.81;100.00
34031;BME280;20319;28.466;-16.274;2023-09-30T11:23:11;95818.81;;;21.72;100.00
34031;BME280;20319;28.466;-16.274;2023-09-30T11:25:38;95846.88;;;21.98;100.00
34031;BME280;20319;28.466;-16.274;2023-09-30T11:28:15;95828.47;;;21.87;100.00
34031;BME280;20319;28.466;-16.274;2023-09-30T11:30:58;95839.19;;;22.01;100.00
34031;BME280;20319;28.466;-16.274;2023-09-30T11:33:24;95840.97;;;21.97;100.00
34031;BME280;20319;28.466;-16.274;2023-09-30T11:36:03;95857.47;;;22.09;100.00
34031;BME280;20319;28.466;-16.274;2023-09-30T11:38:31;95785.13;;;21.68;100.00
34031;BME280;20319;28.466;-16.274;2023-09-30T11:41:04;95658.38;;;21.11;100.00
34031;BME280;20319;28.466;-16.274;2023-09-30T11:43:32;95816.22;;;22.19;100.00
34031;BME280;20319;28.466;-16.274;2023-09-30T11:46:08;95822.44;;;22.28;100.00
34031;BME280;20319;28.466;-16.274;2023-09-30T11:48:35;95649.72;;;21.26;100.00
34031;BME280;20319;28.466;-16.274;2023-09-30T11:51:01;95819.38;;;22.38;100.00
34031;BME280;20319;28.466;-16.274;2023-09-30T11:53:35;95814.84;;;22.42;100.00
34031;BME280;20319;28.466;-16.274;2023-09-30T11:56:01;95821.06;;;22.51;100.00
34031;BME280;20319;28.466;-16.274;2023-09-30T11:58:30;95837.63;;;22.63;100.00
34031;BME280;20319;28.466;-16.274;2023-09-30T12:01:00;95796.38;;;22.56;100.00
34031;BME280;20319;28.466;-16.274;2023-09-30T12:03:26;95807.28;;;22.56;100.00
34031;BME280;20319;28.466;-16.274;2023-09-30T12:05:53;95813.31;;;22.70;100.00
34031;BME280;20319;28.466;-16.274;2023-09-30T12:08:22;95799.50;;;22.75;100.00
34031;BME280;20319;28.466;-16.274;2023-09-30T12:10:48;95774.19;;;22.66;100.00
34031;BME280;20319;28.466;-16.274;2023-09-30T12:13:14;95637.28;;;21.80;100.00
34031;BME280;20319;28.466;-16.274;2023-09-30T12:15:41;95661.44;;;21.98;100.00
34031;BME280;20319;28.466;-16.274;2023-09-30T12:18:06;95772.13;;;22.54;100.00
34031;BME280;20319;28.466;-16.274;2023-09-30T12:20:32;95606.69;;;21.57;100.00
34031;BME280;20319;28.466;-16.274;2023-09-30T12:22:58;95687.88;;;22.07;100.00
34031;BME280;20319;28.466;-16.274;2023-09-30T12:25:24;95744.19;;;22.57;100.00
34031;BME280;20319;28.466;-16.274;2023-09-30T12:27:50;95767.88;;;22.74;100.00
34031;BME280;20319;28.466;-16.274;2023-09-30T12:30:16;95772.06;;;22.71;100.00
34031;BME280;20319;28.466;-16.274;2023-09-30T12:32:45;95767.53;;;22.75;100.00
34031;BME280;20319;28.466;-16.274;2023-09-30T12:35:11;95754.41;;;22.69;100.00
34031;BME280;20319;28.466;-16.274;2023-09-30T12:37:37;95745.28;;;22.65;100.00
34031;BME280;20319;28.466;-16.274;2023-09-30T12:40:06;95743.28;;;22.74;100.00
34031;BME280;20319;28.466;-16.274;2023-09-30T12:42:33;95755.44;;;22.85;100.00
34031;BME280;20319;28.466;-16.274;2023-09-30T12:45:01;95767.78;;;22.91;100.00
34031;BME280;20319;28.466;-16.274;2023-09-30T12:47:27;95626.59;;;22.04;100.00
34031;BME280;20319;28.466;-16.274;2023-09-30T12:49:52;95652.97;;;22.21;100.00
34031;BME280;20319;28.466;-16.274;2023-09-30T12:52:20;95748.75;;;22.74;100.00
34031;BME280;20319;28.466;-16.274;2023-09-30T12:54:46;95588.81;;;21.85;100.00